Time;durP1;ratioP1;P1;durP2;ratioP2;P2;SDS_P1;SDS_P2;PMS_P1;PMS_P2;Temp;Humidity;BMP_temperature;BMP_pressure;BME280_temperature;BME280_humidity;BME280_pressure;Samples;Min_cycle;Max_cycle;Signal;HPM_P1;HPM_P2
2024/01/23 00:00:54;;;;;;;95.47;87.15;;;5.40;83.30;;;;;;12441656;28;20045;-74
2024/01/23 00:06:55;;;;;;;49.38;44.72;;;5.40;83.30;;;;;;12459145;28;20033;-72
2024/01/23 00:12:57;;;;;;;103.15;95.03;;;5.30;83.10;;;;;;12456747;28;20346;-72
2024/01/23 00:18:59;;;;;;;89.55;82.18;;;5.30;83.00;;;;;;12456674;28;20030;-73
2024/01/23 00:25:00;;;;;;;86.70;79.63;;;5.40;82.90;;;;;;12456925;28;20045;-74
2024/01/23 00:31:02;;;;;;;87.90;81.57;;;5.20;82.80;;;;;;12457169;28;20029;-73
2024/01/23 00:37:04;;;;;;;77.82;72.03;;;5.20;82.80;;;;;;12457019;28;20030;-73
2024/01/23 00:43:06;;;;;;;97.63;90.38;;;5.20;82.60;;;;;;12457047;28;20346;-73
2024/01/23 00:49:08;;;;;;;81.53;75.30;;;4.90;82.80;;;;;;12456549;28;20034;-73
2024/01/23 00:55:09;;;;;;;84.45;77.47;;;5.00;82.70;;;;;;12455742;28;20494;-73
2024/01/23 01:01:11;;;;;;;83.70;76.72;;;5.10;82.60;;;;;;12456216;28;20036;-73
2024/01/23 01:07:14;;;;;;;52.03;46.83;;;5.10;82.40;;;;;;12455318;28;20041;-73
2024/01/23 01:13:16;;;;;;;62.13;56.53;;;5.00;82.30;;;;;;12455685;28;20030;-73
2024/01/23 01:19:18;;;;;;;52.78;47.47;;;4.80;82.50;;;;;;12455686;28;20033;-74
2024/01/23 01:25:19;;;;;;;67.40;61.47;;;4.90;82.60;;;;;;12455287;28;20048;-74
2024/01/23 01:31:21;;;;;;;73.03;67.05;;;5.00;82.70;;;;;;12437910;28;20046;-73
2024/01/23 01:37:23;;;;;;;58.53;53.55;;;4.90;82.50;;;;;;12438461;28;20033;-73
2024/01/23 01:43:31;;;;;;;50.22;45.55;;;4.90;82.50;;;;;;12455048;28;20430;-74
2024/01/23 01:49:33;;;;;;;50.90;46.33;;;4.80;82.20;;;;;;12454864;28;20034;-74
2024/01/23 01:55:34;;;;;;;41.58;37.33;;;4.70;82.10;;;;;;12454659;28;20038;-74
2024/01/23 02:01:36;;;;;;;55.90;50.83;;;4.80;82.20;;;;;;12454600;28;20034;-74
2024/01/23 02:07:38;;;;;;;50.40;46.00;;;4.70;82.00;;;;;;12453372;28;20026;-74
2024/01/23 02:13:41;;;;;;;51.72;47.13;;;4.60;81.90;;;;;;12454318;28;20052;-74
2024/01/23 02:19:43;;;;;;;47.80;43.55;;;4.50;81.80;;;;;;12462249;28;20022;-74
2024/01/23 02:25:45;;;;;;;77.70;70.78;;;4.40;81.90;;;;;;12463670;28;20040;-74
2024/01/23 02:31:46;;;;;;;53.30;48.33;;;4.60;82.40;;;;;;12461742;28;20034;-74
2024/01/23 02:37:48;;;;;;;67.38;61.33;;;4.40;82.30;;;;;;12462534;28;20045;-75
2024/01/23 02:43:49;;;;;;;49.55;45.20;;;4.40;82.40;;;;;;12462863;28;20030;-75
2024/01/23 02:49:51;;;;;;;53.35;47.90;;;4.40;82.20;;;;;;12462650;28;20359;-75
2024/01/23 02:56:11;;;;;;;45.15;41.20;;;4.40;82.20;;;;;;12461603;28;20033;-75
2024/01/23 03:02:13;;;;;;;57.20;52.20;;;4.50;81.90;;;;;;12444011;28;20050;-75
2024/01/23 03:08:15;;;;;;;62.00;56.45;;;4.50;81.90;;;;;;12461203;28;20446;-75
2024/01/23 03:14:16;;;;;;;61.28;55.50;;;4.70;81.60;;;;;;12460852;28;20052;-75
2024/01/23 03:20:18;;;;;;;50.72;45.90;;;4.60;81.30;;;;;;12460800;28;20130;-75
2024/01/23 03:26:20;;;;;;;56.28;51.17;;;4.70;81.70;;;;;;12460325;28;20045;-75
2024/01/23 03:32:21;;;;;;;52.60;47.80;;;4.90;82.10;;;;;;12459318;28;20034;-75
2024/01/23 03:38:23;;;;;;;68.18;62.95;;;4.90;81.80;;;;;;12459761;28;20430;-75
2024/01/23 03:44:25;;;;;;;49.88;45.28;;;4.90;81.40;;;;;;12458325;28;20350;-75
2024/01/23 03:50:27;;;;;;;49.40;44.92;;;4.90;81.20;;;;;;12459147;28;20066;-75
2024/01/23 03:56:29;;;;;;;63.35;58.08;;;4.90;80.90;;;;;;12458811;28;20056;-75
2024/01/23 04:02:36;;;;;;;42.95;39.03;;;4.80;80.70;;;;;;12458195;28;20469;-75
2024/01/23 04:08:38;;;;;;;46.95;43.05;;;5.00;80.80;;;;;;12458327;28;20443;-74
2024/01/23 04:14:40;;;;;;;45.33;41.17;;;4.80;80.60;;;;;;12458047;28;20038;-74
2024/01/23 04:20:42;;;;;;;43.72;39.92;;;4.70;80.60;;;;;;12457855;28;20045;-73
2024/01/23 04:26:46;;;;;;;61.17;56.58;;;4.70;80.40;;;;;;12458446;28;20212;-73
2024/01/23 04:32:47;;;;;;;47.42;43.22;;;4.80;80.80;;;;;;12440472;28;20041;-73
2024/01/23 04:38:49;;;;;;;48.33;44.05;;;5.00;80.50;;;;;;12455128;28;20439;-73
2024/01/23 04:44:51;;;;;;;50.72;45.55;;;5.10;80.30;;;;;;12457360;28;20033;-75
2024/01/23 04:50:53;;;;;;;57.38;52.88;;;5.00;80.10;;;;;;12457247;28;20026;-75
2024/01/23 04:56:54;;;;;;;54.70;50.58;;;5.20;80.10;;;;;;12456199;28;20037;-73
2024/01/23 05:02:56;;;;;;;59.35;53.88;;;5.20;80.00;;;;;;12438727;28;20053;-73
2024/01/23 05:08:57;;;;;;;66.40;61.15;;;5.20;79.80;;;;;;12456002;28;20351;-74
2024/01/23 05:14:59;;;;;;;47.60;43.55;;;5.20;79.40;;;;;;12455550;28;20037;-74
2024/01/23 05:21:02;;;;;;;67.40;62.28;;;5.10;79.20;;;;;;12455569;28;20034;-73
2024/01/23 05:27:04;;;;;;;57.72;53.80;;;5.20;79.20;;;;;;12456059;28;20037;-73
2024/01/23 05:33:06;;;;;;;47.90;43.35;;;5.20;78.90;;;;;;12455947;28;20438;-73
2024/01/23 05:39:07;;;;;;;40.50;36.72;;;4.80;79.30;;;;;;12421675;28;20438;-73
2024/01/23 05:45:09;;;;;;;52.58;48.08;;;4.80;79.30;;;;;;12453855;28;20037;-73
2024/01/23 05:51:11;;;;;;;44.05;39.90;;;4.90;79.10;;;;;;12455917;28;20472;-74
2024/01/23 05:57:14;;;;;;;27.45;24.63;;;5.00;78.70;;;;;;12464319;28;20033;-73
2024/01/23 06:03:18;;;;;;;43.83;40.05;;;5.00;78.30;;;;;;12463491;28;20040;-73
2024/01/23 06:09:20;;;;;;;44.03;40.28;;;4.90;78.30;;;;;;12463943;28;20351;-73
2024/01/23 06:15:21;;;;;;;64.75;59.80;;;4.70;77.90;;;;;;12446463;28;20045;-73
2024/01/23 06:21:23;;;;;;;57.58;53.58;;;4.70;78.90;;;;;;12464049;28;20045;-73
2024/01/23 06:27:25;;;;;;;50.70;46.95;;;4.90;78.60;;;;;;12462574;28;20359;-76
2024/01/23 06:33:27;;;;;;;44.85;41.03;;;4.70;78.70;;;;;;12462738;28;20435;-76
2024/01/23 06:39:29;;;;;;;41.65;38.15;;;4.70;78.70;;;;;;12461309;28;20037;-76
2024/01/23 06:45:32;;;;;;;59.75;53.97;;;4.70;78.80;;;;;;12473077;28;20046;-75
2024/01/23 06:51:36;;;;;;;73.30;67.43;;;4.70;78.60;;;;;;12427113;28;20042;-75
2024/01/23 06:57:37;;;;;;;54.20;48.42;;;4.80;78.30;;;;;;12468294;22;20053;-75
2024/01/23 07:03:40;;;;;;;44.28;40.10;;;4.90;78.30;;;;;;12442744;28;20370;-75
2024/01/23 07:09:43;;;;;;;50.35;46.20;;;4.70;77.90;;;;;;12444264;28;20054;-74
2024/01/23 07:15:45;;;;;;;33.97;30.85;;;4.30;78.90;;;;;;12460249;28;20041;-73
2024/01/23 07:21:47;;;;;;;34.13;30.83;;;4.30;79.00;;;;;;12460337;28;20022;-74
2024/01/23 07:27:49;;;;;;;35.70;32.40;;;4.60;79.20;;;;;;12460144;28;20030;-73
2024/01/23 07:33:51;;;;;;;35.17;32.20;;;4.70;78.70;;;;;;12442489;28;20481;-73
2024/01/23 07:39:52;;;;;;;34.97;32.25;;;4.90;78.50;;;;;;12442053;28;20343;-74
2024/01/23 07:45:54;;;;;;;39.95;36.78;;;4.70;78.20;;;;;;12442287;28;20033;-74
2024/01/23 07:51:56;;;;;;;46.53;42.72;;;4.20;79.20;;;;;;12458878;28;20044;-74
2024/01/23 07:57:57;;;;;;;27.27;24.40;;;4.60;80.20;;;;;;12458569;28;20037;-74
2024/01/23 08:03:59;;;;;;;52.22;48.78;;;5.00;79.80;;;;;;12441076;28;20347;-74
2024/01/23 08:10:01;;;;;;;44.40;41.28;;;4.90;79.30;;;;;;12459025;28;20280;-74
2024/01/23 08:16:07;;;;;;;37.85;34.83;;;4.50;79.80;;;;;;12458254;28;20033;-75
2024/01/23 08:22:08;;;;;;;37.95;34.75;;;4.20;80.50;;;;;;12457613;28;20029;-74
2024/01/23 08:28:10;;;;;;;29.98;27.35;;;4.00;80.60;;;;;;12439893;28;20042;-76
2024/01/23 08:34:12;;;;;;;19.15;17.20;;;4.20;81.40;;;;;;12405773;28;20026;-76
2024/01/23 08:40:16;;;;;;;31.73;29.10;;;4.80;81.30;;;;;;12402769;28;20045;-75
2024/01/23 08:46:18;;;;;;;29.88;27.45;;;4.70;80.90;;;;;;12404823;28;20351;-75
2024/01/23 08:52:19;;;;;;;30.92;27.88;;;4.60;81.10;;;;;;12390334;28;20053;-75
2024/01/23 08:58:21;;;;;;;36.83;34.33;;;4.40;81.70;;;;;;12374616;28;20031;-75
2024/01/23 09:04:23;;;;;;;31.95;29.35;;;4.40;81.90;;;;;;12390773;28;20045;-75
2024/01/23 09:10:25;;;;;;;30.27;28.00;;;4.70;82.40;;;;;;12407745;28;20033;-75
2024/01/23 09:16:26;;;;;;;38.70;35.97;;;5.00;82.40;;;;;;12372942;28;20050;-74
2024/01/23 09:22:31;;;;;;;29.42;27.17;;;5.10;82.30;;;;;;12407200;28;20041;-75
2024/01/23 09:28:33;;;;;;;20.50;18.83;;;5.00;82.10;;;;;;12406622;28;20436;-75
2024/01/23 09:34:36;;;;;;;37.80;35.30;;;4.90;82.50;;;;;;12407264;28;20355;-74
2024/01/23 09:40:39;;;;;;;29.35;26.95;;;5.00;82.80;;;;;;12390133;28;20046;-74
2024/01/23 09:46:43;;;;;;;36.92;34.35;;;5.00;82.80;;;;;;12405449;28;20041;-74
2024/01/23 09:52:46;;;;;;;32.67;30.27;;;5.00;82.10;;;;;;12388890;28;20045;-75
2024/01/23 09:58:49;;;;;;;46.92;43.50;;;5.10;81.80;;;;;;12388832;28;20142;-74
2024/01/23 10:04:53;;;;;;;27.23;25.13;;;5.20;81.30;;;;;;12388913;28;20468;-75
2024/01/23 10:11:01;;;;;;;38.13;35.90;;;5.20;81.10;;;;;;12406119;28;20067;-75
2024/01/23 10:17:03;;;;;;;17.92;16.45;;;5.40;80.90;;;;;;12406870;28;20042;-75
2024/01/23 10:23:05;;;;;;;32.33;29.90;;;5.60;81.40;;;;;;12405797;28;20034;-75
2024/01/23 10:29:07;;;;;;;61.08;57.35;;;5.70;81.50;;;;;;12405775;28;20400;-75
2024/01/23 10:35:12;;;;;;;31.00;28.38;;;6.10;81.70;;;;;;12371970;28;20039;-74
2024/01/23 10:41:17;;;;;;;67.22;63.42;;;6.20;81.50;;;;;;12411469;28;20447;-75
2024/01/23 10:47:19;;;;;;;36.40;34.15;;;6.30;81.30;;;;;;12413550;28;20356;-75
2024/01/23 10:53:32;;;;;;;20.30;18.48;;;6.40;80.40;;;;;;12396082;28;20042;-75
2024/01/23 10:59:36;;;;;;;68.80;65.15;;;6.50;80.40;;;;;;12396039;28;20030;-75
2024/01/23 11:05:45;;;;;;;54.05;50.45;;;6.70;81.00;;;;;;12395503;28;20041;-75
2024/01/23 11:11:57;;;;;;;103.03;98.13;;;6.90;81.30;;;;;;12412798;28;20439;-75
2024/01/23 11:18:21;;;;;;;70.18;66.68;;;7.40;81.60;;;;;;12412038;28;20061;-74
2024/01/23 11:24:39;;;;;;;59.47;56.67;;;7.70;81.60;;;;;;12394320;28;20284;-74
2024/01/23 11:31:06;;;;;;;37.85;35.42;;;8.00;81.90;;;;;;12411541;28;20439;-74
2024/01/23 11:37:48;;;;;;;50.70;47.67;;;8.30;82.20;;;;;;12394270;28;20049;-74
2024/01/23 11:44:04;;;;;;;49.05;46.10;;;8.40;80.20;;;;;;12261356;29;20062;-74
2024/01/23 11:50:08;;;;;;;35.42;33.15;;;8.40;80.40;;;;;;12260772;29;20047;-74
2024/01/23 11:56:11;;;;;;;37.45;35.00;;;8.50;80.80;;;;;;12260879;29;20066;-75
2024/01/23 12:02:14;;;;;;;48.42;45.50;;;8.60;79.00;;;;;;12213578;29;20048;-74
2024/01/23 12:08:16;;;;;;;42.28;39.50;;;8.70;79.80;;;;;;12213916;29;20483;-74
2024/01/23 12:14:18;;;;;;;32.63;30.45;;;8.70;79.40;;;;;;12325206;28;20444;-74
2024/01/23 12:20:21;;;;;;;48.97;45.92;;;8.70;79.70;;;;;;12361584;28;20031;-74
2024/01/23 12:26:23;;;;;;;67.00;63.33;;;8.80;79.80;;;;;;12361222;28;20037;-75
2024/01/23 12:32:29;;;;;;;55.83;52.50;;;8.90;78.50;;;;;;12343585;28;20069;-76
2024/01/23 12:38:31;;;;;;;46.85;43.78;;;8.80;78.40;;;;;;12342920;28;20046;-74
2024/01/23 12:44:33;;;;;;;52.28;49.30;;;8.90;79.40;;;;;;12359454;28;20042;-74
2024/01/23 12:50:37;;;;;;;77.18;73.57;;;9.10;79.60;;;;;;12360467;28;20037;-74
2024/01/23 12:56:39;;;;;;;89.65;85.80;;;9.20;80.00;;;;;;12343740;28;20034;-74
2024/01/23 13:02:41;;;;;;;116.72;111.50;;;9.40;80.90;;;;;;12381721;28;20057;-74
2024/01/23 13:08:43;;;;;;;70.57;67.13;;;9.70;81.10;;;;;;12408187;28;20038;-75
2024/01/23 13:14:45;;;;;;;35.25;32.92;;;9.90;81.10;;;;;;12422390;28;20069;-75
2024/01/23 13:20:47;;;;;;;46.33;43.83;;;9.70;80.60;;;;;;12439227;28;20041;-75
2024/01/23 13:27:21;;;;;;;75.72;72.13;;;9.70;81.60;;;;;;12456050;28;20029;-74
2024/01/23 13:33:29;;;;;;;52.15;49.15;;;9.80;81.50;;;;;;12437812;28;20042;-74
2024/01/23 13:39:33;;;;;;;50.38;47.67;;;10.10;81.00;;;;;;12455280;28;20053;-75
2024/01/23 13:45:37;;;;;;;23.33;21.38;;;10.10;81.80;;;;;;12455882;28;20455;-75
2024/01/23 13:51:39;;;;;;;23.63;21.90;;;10.10;81.40;;;;;;12456296;28;20037;-74
2024/01/23 14:11:20;;;;;;;17.40;13.85;;;9.90;81.60;;;;;;12766689;27;20540;-74
2024/01/23 14:17:22;;;;;;;21.48;19.70;;;10.00;78.50;;;;;;12748321;28;20043;-74
2024/01/23 14:23:23;;;;;;;59.60;56.70;;;10.00;79.30;;;;;;12747978;28;20034;-75
2024/01/23 14:29:25;;;;;;;55.78;53.05;;;9.90;80.00;;;;;;12747847;28;20039;-75
2024/01/23 14:35:27;;;;;;;42.13;39.97;;;10.10;80.80;;;;;;12729301;28;20058;-75
2024/01/23 14:41:29;;;;;;;17.25;15.55;;;10.40;80.30;;;;;;12711877;28;20043;-73
2024/01/23 14:47:32;;;;;;;17.27;15.93;;;10.60;80.70;;;;;;12711720;28;20035;-74
2024/01/23 14:53:34;;;;;;;12.63;11.25;;;10.50;81.30;;;;;;12728362;28;20027;-73
2024/01/23 14:59:36;;;;;;;13.15;9.88;;;10.70;81.80;;;;;;12741669;28;20364;-73
2024/01/23 15:05:37;;;;;;;11.15;9.40;;;11.20;81.30;;;;;;12695579;28;20047;-74
2024/01/23 15:11:39;;;;;;;12.50;9.40;;;11.20;81.30;;;;;;12706833;28;20019;-74
2024/01/23 15:17:42;;;;;;;12.52;9.30;;;11.10;81.90;;;;;;12670267;28;20042;-73
2024/01/23 15:23:44;;;;;;;16.55;11.50;;;11.20;82.60;;;;;;12710962;28;20024;-73
2024/01/23 15:29:46;;;;;;;35.40;12.43;;;11.10;82.60;;;;;;12692949;28;20433;-74
2024/01/23 15:35:47;;;;;;;15.32;10.43;;;11.20;82.80;;;;;;12675451;28;20036;-73
2024/01/23 15:41:49;;;;;;;30.15;16.45;;;11.50;82.10;;;;;;12710207;28;20035;-74
2024/01/23 15:47:51;;;;;;;17.52;15.75;;;11.30;82.00;;;;;;12710056;28;20028;-73
2024/01/23 15:53:55;;;;;;;42.42;39.40;;;10.70;82.40;;;;;;12691633;28;20038;-73
2024/01/23 15:59:57;;;;;;;109.18;104.13;;;10.20;83.00;;;;;;12674337;28;20039;-73
2024/01/23 16:05:59;;;;;;;98.20;93.57;;;9.90;83.20;;;;;;12690945;28;20039;-74
2024/01/23 16:12:00;;;;;;;83.38;79.07;;;9.70;83.00;;;;;;12690552;28;20105;-74
2024/01/23 16:18:02;;;;;;;100.57;94.85;;;9.60;83.10;;;;;;12656796;28;20042;-74
2024/01/23 16:24:05;;;;;;;114.07;107.93;;;9.50;83.10;;;;;;12689954;28;20341;-74
2024/01/23 16:30:07;;;;;;;145.70;138.40;;;9.40;83.00;;;;;;12673046;28;20040;-74
2024/01/23 16:36:09;;;;;;;90.88;86.13;;;9.20;83.00;;;;;;12672882;28;20046;-74
2024/01/23 16:42:11;;;;;;;66.80;63.17;;;9.20;83.20;;;;;;12689049;28;20035;-75
2024/01/23 16:48:13;;;;;;;83.78;78.20;;;9.00;82.70;;;;;;12707304;28;20024;-75
2024/01/23 16:54:15;;;;;;;90.60;85.20;;;8.80;83.50;;;;;;12688716;28;20433;-75
2024/01/23 17:00:17;;;;;;;83.18;78.05;;;9.00;83.20;;;;;;12688616;28;20062;-75
2024/01/23 17:06:19;;;;;;;99.68;94.10;;;9.10;82.70;;;;;;12688004;28;20360;-74
2024/01/23 17:12:21;;;;;;;53.85;50.20;;;9.10;82.30;;;;;;12706203;28;20050;-75
2024/01/23 17:18:23;;;;;;;75.00;70.55;;;9.10;81.90;;;;;;12687728;28;20032;-75
2024/01/23 17:24:25;;;;;;;64.10;59.05;;;9.00;81.40;;;;;;12670651;28;20031;-74
2024/01/23 17:30:26;;;;;;;62.10;56.42;;;8.80;81.70;;;;;;12687080;28;20132;-75
2024/01/23 17:36:28;;;;;;;68.15;63.25;;;8.70;81.70;;;;;;12705334;28;20019;-75
2024/01/23 17:42:30;;;;;;;59.53;55.35;;;8.70;81.80;;;;;;12687052;28;20024;-75
2024/01/23 17:48:32;;;;;;;49.42;44.60;;;8.70;81.50;;;;;;12670134;28;20027;-74
2024/01/23 17:54:34;;;;;;;55.83;51.58;;;8.50;81.30;;;;;;12669977;28;20044;-74
2024/01/23 18:00:35;;;;;;;51.97;47.67;;;8.20;81.70;;;;;;12669529;28;20042;-73
2024/01/23 18:06:37;;;;;;;66.15;61.47;;;8.30;81.40;;;;;;12670110;28;20027;-73
2024/01/23 18:12:39;;;;;;;58.10;53.95;;;8.30;81.30;;;;;;12686163;28;20023;-73
2024/01/23 18:18:41;;;;;;;76.47;70.63;;;8.30;80.90;;;;;;12704086;28;20031;-74
2024/01/23 18:24:43;;;;;;;71.78;67.07;;;8.30;80.70;;;;;;12669377;28;20042;-75
2024/01/23 18:30:45;;;;;;;84.18;78.68;;;8.20;80.70;;;;;;12668983;28;20043;-73
2024/01/23 18:36:46;;;;;;;50.15;46.22;;;8.20;80.60;;;;;;12703626;28;20031;-73
2024/01/23 18:42:48;;;;;;;60.40;56.15;;;8.10;80.50;;;;;;12687216;28;20024;-73
2024/01/23 18:48:50;;;;;;;30.67;27.65;;;7.90;80.40;;;;;;12694787;28;20035;-73
2024/01/23 18:54:52;;;;;;;72.35;67.22;;;7.80;80.40;;;;;;12694406;28;20047;-74
2024/01/23 19:00:54;;;;;;;61.88;57.28;;;7.80;80.30;;;;;;12712366;28;20031;-74
2024/01/23 19:06:56;;;;;;;41.45;37.75;;;7.70;80.20;;;;;;12710904;28;20043;-74
2024/01/23 19:12:57;;;;;;;69.60;64.38;;;7.60;80.50;;;;;;12677419;28;20042;-74
2024/01/23 19:18:59;;;;;;;53.80;49.90;;;7.50;80.60;;;;;;12711546;28;20310;-74
2024/01/23 19:25:01;;;;;;;57.10;52.55;;;7.40;80.40;;;;;;12711536;28;20444;-74
2024/01/23 19:31:03;;;;;;;42.05;38.28;;;7.40;80.60;;;;;;12711180;28;20036;-74
2024/01/23 19:37:05;;;;;;;27.52;23.65;;;7.40;80.50;;;;;;12710808;28;20352;-74
2024/01/23 19:43:07;;;;;;;32.95;29.75;;;7.40;80.20;;;;;;12692339;28;20451;-74
2024/01/23 19:49:11;;;;;;;31.10;27.95;;;7.40;80.10;;;;;;12711217;28;20031;-74
2024/01/23 19:55:15;;;;;;;36.03;32.45;;;7.30;79.90;;;;;;12709897;28;20031;-74
2024/01/23 20:01:17;;;;;;;28.00;25.30;;;7.30;80.50;;;;;;12691460;28;20031;-74
2024/01/23 20:07:19;;;;;;;27.08;24.33;;;7.20;80.70;;;;;;12691355;28;20051;-74
2024/01/23 20:13:21;;;;;;;32.13;29.10;;;7.10;80.80;;;;;;12709324;28;20034;-74
2024/01/23 20:19:23;;;;;;;44.42;36.53;;;7.00;80.80;;;;;;12708529;28;20453;-73
2024/01/23 20:25:25;;;;;;;34.50;31.20;;;7.00;80.70;;;;;;12690257;28;20023;-74
2024/01/23 20:31:27;;;;;;;38.03;34.55;;;7.20;80.40;;;;;;12707951;28;20034;-73
2024/01/23 20:37:29;;;;;;;36.95;33.58;;;7.10;80.30;;;;;;12707628;28;20034;-73
2024/01/23 20:43:31;;;;;;;37.90;34.30;;;7.10;80.30;;;;;;12707477;28;20034;-75
2024/01/23 20:49:33;;;;;;;37.00;33.50;;;7.00;80.30;;;;;;12689381;28;20046;-74
2024/01/23 20:55:35;;;;;;;36.22;32.95;;;6.70;80.40;;;;;;12706905;28;20028;-74
2024/01/23 21:01:37;;;;;;;38.58;34.70;;;6.30;81.00;;;;;;12706490;28;20020;-74
2024/01/23 21:07:39;;;;;;;55.97;51.28;;;6.40;80.90;;;;;;12687737;28;20361;-74
2024/01/23 21:13:42;;;;;;;38.08;34.10;;;6.40;80.90;;;;;;12687792;28;20055;-74
2024/01/23 21:19:48;;;;;;;44.28;39.85;;;6.50;80.60;;;;;;12706162;28;20337;-74
2024/01/23 21:25:50;;;;;;;40.13;35.83;;;6.40;80.70;;;;;;12705414;28;20023;-75
2024/01/23 21:31:53;;;;;;;46.40;41.92;;;6.50;80.60;;;;;;12705343;28;20027;-75
2024/01/23 21:37:56;;;;;;;51.80;46.63;;;6.50;80.30;;;;;;12705048;28;20031;-75
2024/01/23 21:43:58;;;;;;;91.55;84.43;;;6.30;80.40;;;;;;12704789;28;20028;-75
2024/01/23 21:49:59;;;;;;;51.83;46.58;;;6.20;80.50;;;;;;12686571;28;20031;-74
2024/01/23 21:56:03;;;;;;;62.70;56.75;;;6.20;80.80;;;;;;12686454;28;20053;-75
2024/01/23 22:02:04;;;;;;;77.70;71.97;;;6.20;80.80;;;;;;12704540;28;20028;-75
2024/01/23 22:08:06;;;;;;;55.47;49.95;;;6.20;80.70;;;;;;12639353;22;20374;-75
2024/01/23 22:14:08;;;;;;;73.93;67.50;;;6.30;80.50;;;;;;12535820;28;20040;-75
2024/01/23 22:20:11;;;;;;;42.60;38.40;;;6.40;80.80;;;;;;12541424;28;20056;-75
2024/01/23 22:26:13;;;;;;;72.55;66.30;;;6.30;80.90;;;;;;12563497;28;20033;-75
2024/01/23 22:32:15;;;;;;;87.57;80.47;;;6.10;81.00;;;;;;12545407;28;20036;-75
2024/01/23 22:38:17;;;;;;;44.78;39.67;;;6.00;81.00;;;;;;12562812;28;20036;-75
2024/01/23 22:44:19;;;;;;;54.33;48.90;;;6.10;80.90;;;;;;12528783;28;20037;-75
2024/01/23 22:50:21;;;;;;;47.00;42.30;;;6.00;81.00;;;;;;12544475;28;20029;-75
2024/01/23 22:56:23;;;;;;;47.17;42.40;;;6.00;80.70;;;;;;12561818;28;20029;-75
2024/01/23 23:02:24;;;;;;;72.90;66.45;;;5.80;81.10;;;;;;12544018;28;20036;-75
2024/01/23 23:08:26;;;;;;;41.97;37.67;;;5.70;81.10;;;;;;12561451;28;20368;-75
2024/01/23 23:14:28;;;;;;;63.10;57.90;;;5.90;81.10;;;;;;12561522;28;20029;-75
2024/01/23 23:20:53;;;;;;;45.05;40.90;;;5.90;80.80;;;;;;12561539;28;20036;-75
2024/01/23 23:26:55;;;;;;;69.57;64.30;;;5.80;80.80;;;;;;12560839;28;20029;-75
2024/01/23 23:32:57;;;;;;;46.28;41.80;;;5.90;81.10;;;;;;12560053;28;20462;-75
2024/01/23 23:38:59;;;;;;;73.78;68.10;;;5.70;81.00;;;;;;12542340;28;20037;-75
2024/01/23 23:45:00;;;;;;;69.57;64.43;;;5.30;81.50;;;;;;12525542;28;20430;-75
2024/01/23 23:51:02;;;;;;;39.25;35.22;;;5.10;81.90;;;;;;12559599;28;20339;-75
2024/01/23 23:57:04;;;;;;;84.32;77.75;;;5.00;82.20;;;;;;12559151;28;20036;-75
